createdAt,value
2023-01-21T00:00:45.668Z,25.33
2023-01-21T00:03:13.022Z,25.75
2023-01-21T00:05:39.981Z,26.10
2023-01-21T00:08:06.610Z,25.42
2023-01-21T00:10:33.631Z,26.60
2023-01-21T00:13:00.185Z,28.00
2023-01-21T00:15:26.831Z,25.92
2023-01-21T00:17:54.080Z,26.55
2023-01-21T00:20:20.722Z,27.23
2023-01-21T00:22:47.352Z,27.45
2023-01-21T00:25:13.896Z,26.60
2023-01-21T00:27:41.095Z,27.35
2023-01-21T00:30:08.586Z,27.48
2023-01-21T00:32:35.151Z,29.23
2023-01-21T00:35:01.715Z,29.15
2023-01-21T00:37:28.253Z,29.35
2023-01-21T00:39:54.780Z,27.88
2023-01-21T00:42:21.338Z,29.55
2023-01-21T00:44:47.911Z,28.88
2023-01-21T00:47:14.499Z,29.70
2023-01-21T00:49:42.190Z,28.40
2023-01-21T00:52:08.807Z,29.13
2023-01-21T00:54:35.352Z,27.42
2023-01-21T00:57:01.946Z,29.88
2023-01-21T00:59:28.718Z,27.58
2023-01-21T01:01:55.274Z,27.75
2023-01-21T01:04:22.987Z,27.92
2023-01-21T01:06:49.918Z,28.83
2023-01-21T01:09:16.695Z,27.95
2023-01-21T01:11:43.481Z,27.42
2023-01-21T01:14:10.034Z,28.27
2023-01-21T01:16:36.622Z,27.38
2023-01-21T01:19:03.446Z,28.48
2023-01-21T01:21:30.239Z,28.95
2023-01-21T01:24:00.641Z,26.55
2023-01-21T01:26:27.490Z,27.50
2023-01-21T01:28:54.056Z,27.77
2023-01-21T01:31:21.837Z,26.73
2023-01-21T01:33:48.739Z,28.00
2023-01-21T01:36:18.052Z,28.48
2023-01-21T01:38:45.340Z,26.60
2023-01-21T01:41:24.385Z,27.63
2023-01-21T01:43:55.808Z,27.10
2023-01-21T01:46:23.693Z,27.30
2023-01-21T01:48:57.430Z,27.15
2023-01-21T01:51:32.935Z,27.50
2023-01-21T01:54:00.450Z,26.83
2023-01-21T01:56:29.227Z,28.55
2023-01-21T01:58:56.168Z,27.27
2023-01-21T02:01:23.442Z,27.15
2023-01-21T02:03:59.275Z,28.75
2023-01-21T02:06:26.624Z,27.52
2023-01-21T02:08:53.799Z,27.45
2023-01-21T02:11:20.706Z,27.13
2023-01-21T02:13:53.256Z,27.88
2023-01-21T02:16:46.186Z,26.50
2023-01-21T02:19:18.786Z,26.88
2023-01-21T02:22:02.075Z,26.13
2023-01-21T02:24:53.055Z,27.00
2023-01-21T02:27:48.961Z,28.23
2023-01-21T02:30:36.615Z,28.25
2023-01-21T02:33:41.292Z,27.27
2023-01-21T02:36:44.498Z,27.00
2023-01-21T02:39:35.714Z,27.17
2023-01-21T02:42:22.326Z,27.20
2023-01-21T02:45:06.399Z,27.85
2023-01-21T02:47:40.679Z,27.88
2023-01-21T02:50:17.696Z,26.35
2023-01-21T02:52:44.372Z,26.52
2023-01-21T02:55:16.679Z,27.15
2023-01-21T02:57:48.750Z,26.58
2023-01-21T03:00:33.403Z,27.23
2023-01-21T03:03:18.233Z,26.63
2023-01-21T03:05:57.131Z,27.27
2023-01-21T03:08:32.721Z,25.58
2023-01-21T03:11:17.033Z,26.02
2023-01-21T03:14:13.369Z,25.88
2023-01-21T03:17:00.260Z,24.98
2023-01-21T03:19:42.973Z,25.85
2023-01-21T03:22:15.085Z,25.77
2023-01-21T03:24:45.356Z,26.17
2023-01-21T03:27:15.069Z,26.55
2023-01-21T03:29:43.723Z,24.80
2023-01-21T03:32:15.524Z,25.45
2023-01-21T03:34:48.261Z,26.10
2023-01-21T03:37:17.943Z,26.48
2023-01-21T03:39:44.579Z,25.95
2023-01-21T03:42:12.739Z,25.13
2023-01-21T03:44:40.154Z,26.08
2023-01-21T03:47:29.564Z,27.35
2023-01-21T03:50:01.286Z,26.17
2023-01-21T03:52:28.627Z,27.13
2023-01-21T03:54:55.354Z,26.45
2023-01-21T03:57:22.048Z,26.92
2023-01-21T03:59:48.721Z,26.55
2023-01-21T04:02:20.311Z,28.23
2023-01-21T04:04:47.682Z,27.13
2023-01-21T04:07:17.015Z,27.92
2023-01-21T04:09:43.650Z,28.60
2023-01-21T04:12:10.663Z,26.88
2023-01-21T04:14:37.463Z,28.20
2023-01-21T04:17:04.847Z,27.23
2023-01-21T04:19:31.597Z,28.27
2023-01-21T04:21:58.299Z,29.30
2023-01-21T04:24:25.251Z,29.35
2023-01-21T04:26:51.944Z,29.52
2023-01-21T04:29:19.012Z,28.67
2023-01-21T04:31:45.716Z,29.15
2023-01-21T04:34:12.418Z,29.45
2023-01-21T04:36:39.103Z,30.92
2023-01-21T04:39:05.926Z,27.95
2023-01-21T04:41:32.478Z,29.48
2023-01-21T04:43:59.051Z,29.55
2023-01-21T04:46:25.643Z,29.35
2023-01-21T04:48:52.216Z,29.63
2023-01-21T04:51:18.898Z,30.92
2023-01-21T04:53:45.544Z,30.90
2023-01-21T04:56:12.153Z,30.55
2023-01-21T04:58:38.727Z,29.92
2023-01-21T05:01:05.488Z,29.98
2023-01-21T05:03:32.099Z,29.73
2023-01-21T05:05:58.911Z,30.25
2023-01-21T05:08:25.557Z,28.88
2023-01-21T05:10:52.229Z,28.58
2023-01-21T05:13:18.756Z,29.45
2023-01-21T05:15:45.338Z,27.77
2023-01-21T05:18:11.951Z,29.40
2023-01-21T05:20:38.472Z,28.10
2023-01-21T05:23:05.053Z,29.13
2023-01-21T05:25:31.640Z,29.52
2023-01-21T05:27:58.327Z,28.92
2023-01-21T05:30:25.031Z,28.92
2023-01-21T05:32:55.266Z,28.05
2023-01-21T05:35:23.476Z,28.88
2023-01-21T05:37:50.210Z,29.52
2023-01-21T05:40:17.947Z,28.52
2023-01-21T05:42:45.903Z,28.23
2023-01-21T05:45:12.491Z,27.73
2023-01-21T05:47:39.283Z,29.70
2023-01-21T05:50:06.466Z,29.85
2023-01-21T05:52:33.004Z,29.13
2023-01-21T05:55:02.239Z,28.80
2023-01-21T05:57:29.645Z,28.52
2023-01-21T05:59:56.510Z,29.55
2023-01-21T06:02:23.146Z,28.83
2023-01-21T06:04:49.736Z,28.88
2023-01-21T06:07:16.511Z,28.50
2023-01-21T06:09:43.173Z,30.05
2023-01-21T06:12:09.707Z,28.88
2023-01-21T06:14:36.263Z,27.67
2023-01-21T06:17:02.840Z,29.27
2023-01-21T06:19:29.420Z,28.10
2023-01-21T06:21:55.944Z,28.23
2023-01-21T06:24:22.629Z,29.63
2023-01-21T06:26:49.231Z,28.55
2023-01-21T06:29:15.861Z,28.83
2023-01-21T06:31:42.509Z,27.73
2023-01-21T06:34:12.610Z,28.13
2023-01-21T06:36:40.906Z,28.85
2023-01-21T06:39:09.529Z,28.65
2023-01-21T06:41:36.086Z,29.02
2023-01-21T06:44:03.565Z,28.23
2023-01-21T06:46:30.272Z,29.20
2023-01-21T06:48:56.903Z,27.15
2023-01-21T06:51:23.570Z,29.73
2023-01-21T06:53:50.154Z,28.50
2023-01-21T06:56:16.729Z,30.60
2023-01-21T06:58:43.292Z,28.30
2023-01-21T07:01:09.940Z,29.48
2023-01-21T07:03:36.451Z,30.23
2023-01-21T07:06:03.021Z,27.63
2023-01-21T07:08:29.643Z,27.92
2023-01-21T07:10:56.187Z,28.50
2023-01-21T07:13:23.457Z,30.92
2023-01-21T07:15:50.325Z,32.92
2023-01-21T07:18:16.867Z,28.45
2023-01-21T07:20:43.563Z,27.55
2023-01-21T07:23:10.086Z,28.55
2023-01-21T07:25:37.472Z,27.88
2023-01-21T07:28:04.216Z,27.60
2023-01-21T07:30:30.756Z,28.83
2023-01-21T07:32:57.459Z,28.23
2023-01-21T07:35:24.040Z,28.98
2023-01-21T07:37:50.619Z,28.67
2023-01-21T07:40:17.501Z,27.50
2023-01-21T07:42:44.132Z,28.13
2023-01-21T07:45:10.866Z,28.98
2023-01-21T07:47:37.479Z,29.33
2023-01-21T07:50:08.589Z,29.27
2023-01-21T07:52:35.546Z,27.92
2023-01-21T07:55:02.111Z,27.67
2023-01-21T07:57:28.853Z,27.90
2023-01-21T07:59:55.788Z,28.13
2023-01-21T08:02:22.743Z,27.25
2023-01-21T08:04:49.496Z,27.25
2023-01-21T08:07:16.277Z,27.80
2023-01-21T08:09:42.949Z,27.50
2023-01-21T08:12:10.665Z,30.15
2023-01-21T08:14:38.622Z,27.30
2023-01-21T08:17:05.243Z,27.42
2023-01-21T08:19:31.799Z,27.20
2023-01-21T08:21:58.441Z,26.60
2023-01-21T08:24:25.071Z,27.25
2023-01-21T08:26:51.581Z,27.60
2023-01-21T08:29:18.159Z,28.77
2023-01-21T08:31:44.809Z,28.25
2023-01-21T08:34:11.391Z,30.00
2023-01-21T08:36:39.029Z,27.77
2023-01-21T08:39:06.391Z,26.98
2023-01-21T08:41:33.702Z,26.17
2023-01-21T08:44:00.704Z,26.55
2023-01-21T08:46:27.287Z,28.05
2023-01-21T08:48:53.860Z,28.23
2023-01-21T08:51:20.472Z,27.98
2023-01-21T08:53:50.065Z,29.67
2023-01-21T08:56:17.689Z,28.13
2023-01-21T08:58:44.794Z,28.20
2023-01-21T09:01:15.258Z,28.83
2023-01-21T09:03:42.268Z,29.58
2023-01-21T09:06:11.344Z,29.50
2023-01-21T09:08:37.930Z,28.80
2023-01-21T09:11:06.809Z,29.65
2023-01-21T09:13:38.634Z,30.50
2023-01-21T09:16:10.670Z,30.80
2023-01-21T09:18:37.741Z,37.05
2023-01-21T09:21:05.877Z,38.05
2023-01-21T09:23:34.765Z,38.30
2023-01-21T09:26:01.368Z,37.45
2023-01-21T09:28:29.767Z,31.42
2023-01-21T09:31:01.552Z,28.73
2023-01-21T09:33:30.064Z,28.33
2023-01-21T09:36:02.583Z,28.23
2023-01-21T09:38:30.130Z,27.02
2023-01-21T09:41:04.330Z,29.17
2023-01-21T09:43:38.790Z,27.67
2023-01-21T09:46:12.156Z,27.80
2023-01-21T09:48:43.702Z,29.77
2023-01-21T09:51:19.841Z,30.73
2023-01-21T09:53:55.492Z,32.17
2023-01-21T09:56:28.268Z,32.80
2023-01-21T09:59:07.036Z,32.95
2023-01-21T10:01:40.905Z,30.92
2023-01-21T10:04:33.674Z,29.70
2023-01-21T10:07:06.006Z,29.38
2023-01-21T10:09:47.667Z,28.73
2023-01-21T10:12:19.979Z,29.02
2023-01-21T10:14:58.635Z,29.00
2023-01-21T10:17:47.591Z,28.67
2023-01-21T10:20:24.482Z,27.08
2023-01-21T10:23:03.541Z,27.08
2023-01-21T10:25:32.472Z,27.40
2023-01-21T10:28:04.048Z,26.40
2023-01-21T10:30:33.718Z,27.67
2023-01-21T10:33:00.608Z,27.25
2023-01-21T10:35:52.492Z,28.35
2023-01-21T10:38:45.299Z,28.08
2023-01-21T10:41:53.163Z,26.85
2023-01-21T10:44:27.043Z,27.42
2023-01-21T10:47:19.643Z,27.93
2023-01-21T10:49:46.213Z,26.67
2023-01-21T10:52:45.290Z,27.70
2023-01-21T10:55:45.470Z,26.45
2023-01-21T10:58:18.086Z,26.10
2023-01-21T11:00:48.614Z,29.65
2023-01-21T11:03:35.132Z,27.42
2023-01-21T11:06:04.664Z,29.30
2023-01-21T11:08:31.393Z,28.45
2023-01-21T11:10:59.466Z,28.92
2023-01-21T11:13:26.501Z,29.10
2023-01-21T11:15:56.094Z,28.90
2023-01-21T11:18:42.874Z,28.60
2023-01-21T11:21:22.733Z,28.75
2023-01-21T11:24:20.584Z,29.55
2023-01-21T11:26:55.925Z,32.90
2023-01-21T11:29:24.669Z,27.88
2023-01-21T11:32:01.955Z,29.17
2023-01-21T11:34:28.856Z,28.88
2023-01-21T11:37:04.145Z,30.42
2023-01-21T11:39:37.095Z,30.70
2023-01-21T11:42:13.692Z,29.83
2023-01-21T11:44:58.353Z,29.30
2023-01-21T11:47:40.714Z,30.77
2023-01-21T11:50:18.200Z,28.38
2023-01-21T11:52:45.324Z,28.48
2023-01-21T11:55:23.879Z,28.67
2023-01-21T11:57:54.858Z,30.52
2023-01-21T12:00:24.872Z,29.10
2023-01-21T12:02:57.245Z,29.63
2023-01-21T12:05:23.787Z,30.92
2023-01-21T12:07:51.615Z,30.05
2023-01-21T12:10:35.882Z,30.45
2023-01-21T12:13:16.879Z,32.35
2023-01-21T12:16:06.073Z,32.42
2023-01-21T12:18:54.639Z,33.00
2023-01-21T12:21:31.592Z,32.90
2023-01-21T12:24:01.013Z,32.72
2023-01-21T12:26:53.234Z,34.40
2023-01-21T12:29:54.984Z,36.55
2023-01-21T12:32:31.454Z,36.83
2023-01-21T12:35:09.438Z,37.17
2023-01-21T12:37:51.288Z,35.03
2023-01-21T12:40:51.847Z,34.80
2023-01-21T12:43:27.282Z,35.25
2023-01-21T12:46:00.283Z,35.33
2023-01-21T12:48:33.355Z,36.33
2023-01-21T12:51:07.004Z,35.50
2023-01-21T12:53:42.473Z,35.42
2023-01-21T12:56:20.516Z,35.20
2023-01-21T12:58:55.112Z,36.47
2023-01-21T13:01:33.969Z,36.80
2023-01-21T13:04:38.971Z,36.55
2023-01-21T13:07:11.456Z,37.87
2023-01-21T13:09:46.923Z,36.25
2023-01-21T13:12:20.708Z,35.75
2023-01-21T13:14:55.255Z,36.73
2023-01-21T13:17:30.876Z,36.92
2023-01-21T13:19:59.208Z,36.38
2023-01-21T13:22:25.823Z,35.65
2023-01-21T13:25:05.448Z,36.80
2023-01-21T13:27:44.586Z,38.13
2023-01-21T13:30:26.741Z,37.22
2023-01-21T13:33:17.944Z,38.72
2023-01-21T13:36:03.289Z,39.97
2023-01-21T13:38:46.858Z,38.38
2023-01-21T13:41:16.823Z,38.33
2023-01-21T13:44:09.834Z,38.03
2023-01-21T13:47:09.027Z,39.50
2023-01-21T13:49:49.452Z,36.33
2023-01-21T13:52:43.790Z,36.40
2023-01-21T13:55:31.579Z,35.75
2023-01-21T13:58:02.630Z,35.17
2023-01-21T14:00:40.020Z,35.00
2023-01-21T14:03:19.527Z,34.92
2023-01-21T14:06:08.484Z,32.85
2023-01-21T14:08:45.526Z,33.88
2023-01-21T14:11:23.740Z,31.95
2023-01-21T14:14:00.988Z,31.27
2023-01-21T14:16:30.551Z,29.85
2023-01-21T14:19:18.413Z,29.67
2023-01-21T14:21:58.635Z,29.65
2023-01-21T14:24:28.637Z,27.90
2023-01-21T14:27:16.734Z,29.50
2023-01-21T14:29:46.964Z,28.65
2023-01-21T14:32:26.966Z,30.88
2023-01-21T14:35:13.873Z,31.35
2023-01-21T14:38:03.269Z,30.98
2023-01-21T14:40:33.303Z,32.70
2023-01-21T14:42:59.990Z,32.00
2023-01-21T14:46:23.633Z,31.88
2023-01-21T14:49:36.171Z,33.72
2023-01-21T14:52:03.592Z,33.85
2023-01-21T14:54:30.193Z,34.10
2023-01-21T14:57:13.795Z,32.60
2023-01-21T14:59:46.279Z,31.77
2023-01-21T15:02:37.328Z,30.90
2023-01-21T15:05:25.881Z,31.23
2023-01-21T15:08:23.868Z,30.50
2023-01-21T15:11:03.280Z,31.60
2023-01-21T15:13:32.672Z,31.08
2023-01-21T15:16:04.086Z,30.55
2023-01-21T15:18:50.902Z,29.77
2023-01-21T15:21:37.339Z,30.95
2023-01-21T15:24:23.031Z,29.15
2023-01-21T15:27:22.386Z,29.70
2023-01-21T15:29:54.741Z,28.98
2023-01-21T15:32:28.889Z,30.05
2023-01-21T15:35:18.774Z,30.73
2023-01-21T15:37:48.785Z,30.58
2023-01-21T15:40:23.287Z,29.92
2023-01-21T15:42:58.849Z,29.85
2023-01-21T15:46:19.513Z,29.08
2023-01-21T15:48:54.142Z,29.77
2023-01-21T15:51:47.929Z,28.35
2023-01-21T15:54:56.588Z,28.75
2023-01-21T15:57:34.789Z,28.85
2023-01-21T16:00:26.858Z,28.55
2023-01-21T16:03:00.441Z,29.08
2023-01-21T16:05:50.266Z,28.70
2023-01-21T16:08:44.931Z,28.90
2023-01-21T16:11:32.883Z,26.88
2023-01-21T16:14:30.167Z,26.55
2023-01-21T16:17:12.010Z,26.60
2023-01-21T16:19:45.454Z,28.10
2023-01-21T16:22:15.353Z,29.42
2023-01-21T16:24:49.860Z,28.55
2023-01-21T16:27:22.941Z,27.80
2023-01-21T16:29:58.575Z,26.52
2023-01-21T16:32:26.900Z,26.98
2023-01-21T16:34:54.148Z,25.75
2023-01-21T16:37:24.015Z,24.55
2023-01-21T16:40:13.999Z,25.38
2023-01-21T16:42:44.266Z,24.90
2023-01-21T16:45:21.591Z,25.98
2023-01-21T16:47:59.427Z,25.88
2023-01-21T16:50:28.431Z,24.92
2023-01-21T16:52:57.215Z,25.77
2023-01-21T16:55:26.895Z,23.77
2023-01-21T16:57:56.861Z,25.35
2023-01-21T17:00:31.488Z,24.65
2023-01-21T17:02:59.847Z,22.70
2023-01-21T17:05:32.898Z,24.55
2023-01-21T17:08:03.212Z,22.77
2023-01-21T17:10:39.963Z,23.15
2023-01-21T17:13:13.925Z,23.00
2023-01-21T17:15:43.344Z,23.80
2023-01-21T17:18:21.125Z,21.70
2023-01-21T17:20:51.313Z,22.58
2023-01-21T17:23:22.660Z,22.95
2023-01-21T17:25:58.667Z,21.65
2023-01-21T17:28:37.706Z,22.13
2023-01-21T17:31:10.575Z,22.02
2023-01-21T17:33:37.489Z,22.52
2023-01-21T17:36:29.865Z,21.88
2023-01-21T17:38:56.463Z,22.70
2023-01-21T17:41:27.627Z,22.23
2023-01-21T17:43:56.134Z,22.92
2023-01-21T17:46:24.367Z,23.02
2023-01-21T17:48:57.949Z,22.45
2023-01-21T17:51:30.424Z,23.20
2023-01-21T17:54:00.688Z,23.85
2023-01-21T17:56:42.613Z,22.75
2023-01-21T17:59:37.725Z,22.95
2023-01-21T18:02:12.419Z,23.30
2023-01-21T18:07:20.829Z,22.20
2023-01-21T18:09:47.395Z,23.88
2023-01-21T18:12:14.209Z,23.92
2023-01-21T18:14:41.829Z,22.27
2023-01-21T18:17:17.038Z,22.92
2023-01-21T18:19:43.590Z,22.63
2023-01-21T18:22:22.585Z,24.13
2023-01-21T18:24:49.211Z,23.20
2023-01-21T18:27:17.325Z,24.10
2023-01-21T18:29:44.809Z,24.60
2023-01-21T18:32:14.212Z,23.95
2023-01-21T18:34:40.903Z,23.73
2023-01-21T18:37:16.082Z,22.85
2023-01-21T18:39:42.970Z,23.48
2023-01-21T18:42:15.280Z,23.40
2023-01-21T18:44:42.047Z,24.33
2023-01-21T18:47:14.115Z,24.85
2023-01-21T18:49:41.177Z,24.50
2023-01-21T18:52:11.121Z,25.20
2023-01-21T18:54:37.672Z,26.05
2023-01-21T18:57:10.164Z,24.40
2023-01-21T18:59:37.268Z,25.15
2023-01-21T19:02:06.055Z,25.33
2023-01-21T19:04:32.682Z,24.70
2023-01-21T19:07:01.339Z,24.02
2023-01-21T19:09:27.908Z,25.10
2023-01-21T19:11:54.463Z,25.75
2023-01-21T19:14:21.024Z,26.30
2023-01-21T19:16:47.682Z,25.70
2023-01-21T19:19:16.904Z,25.63
2023-01-21T19:21:43.495Z,25.25
2023-01-21T19:24:12.139Z,25.75
2023-01-21T19:26:39.185Z,24.48
2023-01-21T19:29:11.474Z,23.00
2023-01-21T19:31:38.116Z,25.63
2023-01-21T19:34:04.720Z,24.55
2023-01-21T19:36:31.375Z,23.88
2023-01-21T19:38:59.404Z,23.42
2023-01-21T19:41:26.001Z,24.85
2023-01-21T19:43:52.560Z,24.63
2023-01-21T19:46:19.731Z,24.85
2023-01-21T19:48:50.261Z,23.42
2023-01-21T19:51:17.028Z,24.70
2023-01-21T19:53:43.647Z,23.70
2023-01-21T19:56:16.031Z,24.77
2023-01-21T19:58:42.675Z,24.05
2023-01-21T20:01:09.252Z,23.65
2023-01-21T20:03:35.845Z,24.17
2023-01-21T20:06:05.432Z,24.77
2023-01-21T20:08:33.021Z,23.58
2023-01-21T20:10:59.590Z,25.80
2023-01-21T20:13:28.490Z,25.27
2023-01-21T20:15:55.490Z,24.35
2023-01-21T20:18:25.147Z,24.35
2023-01-21T20:20:52.426Z,23.88
2023-01-21T20:23:20.743Z,24.50
2023-01-21T20:25:51.153Z,23.58
2023-01-21T20:28:24.235Z,24.58
2023-01-21T20:30:52.095Z,24.10
2023-01-21T20:33:22.157Z,24.45
2023-01-21T20:35:50.971Z,24.23
2023-01-21T20:38:23.184Z,23.52
2023-01-21T20:40:49.770Z,23.38
2023-01-21T20:43:18.943Z,22.02
2023-01-21T20:45:48.914Z,23.10
2023-01-21T20:48:21.121Z,23.52
2023-01-21T20:50:48.438Z,22.45
2023-01-21T20:53:15.003Z,23.77
2023-01-21T20:55:45.033Z,25.05
2023-01-21T20:58:13.822Z,23.48
2023-01-21T21:00:41.262Z,23.52
2023-01-21T21:03:08.081Z,24.00
2023-01-21T21:05:34.658Z,23.60
2023-01-21T21:08:01.226Z,22.70
2023-01-21T21:10:38.351Z,23.50
2023-01-21T21:13:05.220Z,24.38
2023-01-21T21:15:34.719Z,24.40
2023-01-21T21:18:05.578Z,23.75
2023-01-21T21:20:35.391Z,24.75
2023-01-21T21:23:02.152Z,23.85
2023-01-21T21:25:32.011Z,23.50
2023-01-21T21:27:58.969Z,23.77
2023-01-21T21:30:32.941Z,24.45
2023-01-21T21:33:00.873Z,24.35
2023-01-21T21:35:47.020Z,22.52
2023-01-21T21:38:23.384Z,22.73
2023-01-21T21:40:53.131Z,24.25
2023-01-21T21:43:33.214Z,23.45
2023-01-21T21:46:30.606Z,24.33
2023-01-21T21:48:57.240Z,24.02
2023-01-21T21:51:24.201Z,23.45
2023-01-21T21:53:51.409Z,22.83
2023-01-21T21:56:20.508Z,23.92
2023-01-21T21:58:47.491Z,24.50
2023-01-21T22:01:17.164Z,24.05
2023-01-21T22:03:43.868Z,23.42
2023-01-21T22:06:11.745Z,23.38
2023-01-21T22:08:40.468Z,23.52
2023-01-21T22:11:09.402Z,23.52
2023-01-21T22:13:40.098Z,24.77
2023-01-21T22:16:10.598Z,23.42
2023-01-21T22:18:37.266Z,24.27
2023-01-21T22:21:10.487Z,24.40
2023-01-21T22:23:37.774Z,23.73
2023-01-21T22:26:06.800Z,24.13
2023-01-21T22:28:35.061Z,23.17
2023-01-21T22:31:06.991Z,23.85
2023-01-21T22:33:35.099Z,24.25
2023-01-21T22:36:07.157Z,23.10
2023-01-21T22:38:34.925Z,22.48
2023-01-21T22:41:02.097Z,23.73
2023-01-21T22:43:29.293Z,22.60
2023-01-21T22:45:57.026Z,22.75
2023-01-21T22:48:24.044Z,22.38
2023-01-21T22:50:58.311Z,23.35
2023-01-21T22:53:26.236Z,22.83
2023-01-21T22:55:57.098Z,22.92
2023-01-21T22:58:24.922Z,22.58
2023-01-21T23:00:52.879Z,22.33
2023-01-21T23:03:20.804Z,23.38
2023-01-21T23:05:47.636Z,22.80
2023-01-21T23:08:15.487Z,23.02
2023-01-21T23:10:42.688Z,23.10
2023-01-21T23:13:10.712Z,22.73
2023-01-21T23:15:42.131Z,23.13
2023-01-21T23:18:08.781Z,23.50
2023-01-21T23:20:36.847Z,22.30
2023-01-21T23:23:04.017Z,22.98
2023-01-21T23:25:30.607Z,21.85
2023-01-21T23:27:57.146Z,21.88
2023-01-21T23:30:23.681Z,22.05
2023-01-21T23:32:50.276Z,22.05
2023-01-21T23:35:19.079Z,22.13
2023-01-21T23:37:45.652Z,23.33
2023-01-21T23:40:12.439Z,22.42
2023-01-21T23:42:38.987Z,21.35
2023-01-21T23:45:05.726Z,22.52
2023-01-21T23:47:32.298Z,21.55
2023-01-21T23:49:58.903Z,23.17
2023-01-21T23:52:25.641Z,22.98
2023-01-21T23:54:52.245Z,21.70
2023-01-21T23:57:19.620Z,24.10
2023-01-21T23:59:46.206Z,22.17
